sensor_id;sensor_type;location;lat;lon;timestamp;pressure;altitude;pressure_sealevel;temperature;humidity
7966;BME280;4028;43.272;26.932;2023-02-03T00:01:48;99190.28;;;2.42;100.00
7966;BME280;4028;43.272;26.932;2023-02-03T00:04:14;99209.50;;;2.55;100.00
7966;BME280;4028;43.272;26.932;2023-02-03T00:06:40;99211.09;;;2.58;100.00
7966;BME280;4028;43.272;26.932;2023-02-03T00:09:06;99205.31;;;2.53;100.00
7966;BME280;4028;43.272;26.932;2023-02-03T00:11:32;99217.06;;;2.60;100.00
7966;BME280;4028;43.272;26.932;2023-02-03T00:13:58;99217.00;;;2.62;100.00
7966;BME280;4028;43.272;26.932;2023-02-03T00:16:23;99221.34;;;2.75;100.00
7966;BME280;4028;43.272;26.932;2023-02-03T00:18:49;99211.19;;;2.71;100.00
7966;BME280;4028;43.272;26.932;2023-02-03T00:21:14;99213.22;;;2.66;100.00
7966;BME280;4028;43.272;26.932;2023-02-03T00:23:41;99205.78;;;2.59;100.00
7966;BME280;4028;43.272;26.932;2023-02-03T00:26:14;99203.09;;;2.61;100.00
7966;BME280;4028;43.272;26.932;2023-02-03T00:28:39;99198.59;;;2.63;100.00
7966;BME280;4028;43.272;26.932;2023-02-03T00:31:05;99202.78;;;2.66;100.00
7966;BME280;4028;43.272;26.932;2023-02-03T00:33:31;99193.53;;;2.60;100.00
7966;BME280;4028;43.272;26.932;2023-02-03T00:36:03;99203.25;;;2.58;100.00
7966;BME280;4028;43.272;26.932;2023-02-03T00:38:28;99198.13;;;2.56;100.00
7966;BME280;4028;43.272;26.932;2023-02-03T00:40:54;99198.88;;;2.58;100.00
7966;BME280;4028;43.272;26.932;2023-02-03T00:43:20;99205.22;;;2.54;100.00
7966;BME280;4028;43.272;26.932;2023-02-03T00:45:45;99208.03;;;2.51;100.00
7966;BME280;4028;43.272;26.932;2023-02-03T00:48:11;99199.03;;;2.55;100.00
7966;BME280;4028;43.272;26.932;2023-02-03T00:50:36;99193.81;;;2.55;100.00
7966;BME280;4028;43.272;26.932;2023-02-03T00:53:02;99194.69;;;2.56;100.00
7966;BME280;4028;43.272;26.932;2023-02-03T00:55:27;99181.69;;;2.54;100.00
7966;BME280;4028;43.272;26.932;2023-02-03T00:57:53;99165.56;;;2.48;100.00
7966;BME280;4028;43.272;26.932;2023-02-03T01:00:19;99173.97;;;2.53;100.00
7966;BME280;4028;43.272;26.932;2023-02-03T01:02:45;99185.25;;;2.53;100.00
7966;BME280;4028;43.272;26.932;2023-02-03T01:05:10;99180.75;;;2.55;100.00
7966;BME280;4028;43.272;26.932;2023-02-03T01:07:36;99163.13;;;2.45;100.00
7966;BME280;4028;43.272;26.932;2023-02-03T01:10:03;99185.91;;;2.57;100.00
7966;BME280;4028;43.272;26.932;2023-02-03T01:12:29;99192.53;;;2.63;100.00
7966;BME280;4028;43.272;26.932;2023-02-03T01:14:55;99185.06;;;2.56;100.00
7966;BME280;4028;43.272;26.932;2023-02-03T01:17:21;99178.06;;;2.57;100.00
7966;BME280;4028;43.272;26.932;2023-02-03T01:19:46;99181.44;;;2.59;100.00
7966;BME280;4028;43.272;26.932;2023-02-03T01:22:12;99158.28;;;2.53;100.00
7966;BME280;4028;43.272;26.932;2023-02-03T01:24:37;99157.63;;;2.49;100.00
7966;BME280;4028;43.272;26.932;2023-02-03T01:27:03;99151.84;;;2.58;100.00
7966;BME280;4028;43.272;26.932;2023-02-03T01:29:30;99163.41;;;2.54;100.00
7966;BME280;4028;43.272;26.932;2023-02-03T01:31:56;99174.06;;;2.51;100.00
7966;BME280;4028;43.272;26.932;2023-02-03T01:34:21;99179.91;;;2.55;100.00
7966;BME280;4028;43.272;26.932;2023-02-03T01:36:47;99187.13;;;2.51;100.00
7966;BME280;4028;43.272;26.932;2023-02-03T01:39:13;99187.13;;;2.51;100.00
7966;BME280;4028;43.272;26.932;2023-02-03T01:41:39;99192.91;;;2.56;100.00
7966;BME280;4028;43.272;26.932;2023-02-03T01:44:43;99203.69;;;2.50;100.00
7966;BME280;4028;43.272;26.932;2023-02-03T01:47:27;99201.47;;;2.44;100.00
7966;BME280;4028;43.272;26.932;2023-02-03T01:50:05;99208.09;;;2.36;100.00
7966;BME280;4028;43.272;26.932;2023-02-03T01:52:33;99200.25;;;2.36;100.00
7966;BME280;4028;43.272;26.932;2023-02-03T01:55:01;99207.78;;;2.26;100.00
7966;BME280;4028;43.272;26.932;2023-02-03T01:57:33;99204.13;;;2.28;100.00
7966;BME280;4028;43.272;26.932;2023-02-03T02:00:02;99201.53;;;2.28;100.00
7966;BME280;4028;43.272;26.932;2023-02-03T02:02:29;99193.91;;;2.25;100.00
7966;BME280;4028;43.272;26.932;2023-02-03T02:07:28;99161.25;;;2.32;100.00
7966;BME280;4028;43.272;26.932;2023-02-03T02:09:55;99179.38;;;2.36;100.00
7966;BME280;4028;43.272;26.932;2023-02-03T02:12:20;99181.69;;;2.26;100.00
7966;BME280;4028;43.272;26.932;2023-02-03T02:14:46;99174.31;;;2.32;100.00
7966;BME280;4028;43.272;26.932;2023-02-03T02:26:10;99186.91;;;2.26;100.00
7966;BME280;4028;43.272;26.932;2023-02-03T02:31:46;99212.34;;;2.22;100.00
7966;BME280;4028;43.272;26.932;2023-02-03T02:34:53;99206.59;;;2.31;100.00
7966;BME280;4028;43.272;26.932;2023-02-03T02:37:29;99213.00;;;2.26;100.00
7966;BME280;4028;43.272;26.932;2023-02-03T02:41:01;99220.69;;;2.13;100.00
7966;BME280;4028;43.272;26.932;2023-02-03T02:43:09;99223.88;;;2.18;100.00
7966;BME280;4028;43.272;26.932;2023-02-03T02:45:47;99224.72;;;2.19;100.00
7966;BME280;4028;43.272;26.932;2023-02-03T02:50:45;99232.91;;;2.13;100.00
7966;BME280;4028;43.272;26.932;2023-02-03T02:53:13;99233.50;;;2.18;100.00
7966;BME280;4028;43.272;26.932;2023-02-03T02:55:40;99209.59;;;2.09;100.00
7966;BME280;4028;43.272;26.932;2023-02-03T02:58:10;99221.38;;;2.17;100.00
7966;BME280;4028;43.272;26.932;2023-02-03T03:00:38;99232.25;;;2.09;100.00
7966;BME280;4028;43.272;26.932;2023-02-03T03:05:39;99226.84;;;2.12;100.00
7966;BME280;4028;43.272;26.932;2023-02-03T03:08:07;99228.22;;;2.03;100.00
7966;BME280;4028;43.272;26.932;2023-02-03T03:10:36;99241.28;;;2.03;100.00
7966;BME280;4028;43.272;26.932;2023-02-03T03:13:08;99245.34;;;1.93;100.00
7966;BME280;4028;43.272;26.932;2023-02-03T03:15:38;99246.75;;;1.99;100.00
7966;BME280;4028;43.272;26.932;2023-02-03T03:18:13;99245.16;;;1.96;100.00
7966;BME280;4028;43.272;26.932;2023-02-03T03:20:41;99248.63;;;1.97;100.00
7966;BME280;4028;43.272;26.932;2023-02-03T03:23:29;99248.88;;;1.92;100.00
7966;BME280;4028;43.272;26.932;2023-02-03T03:26:07;99262.03;;;1.91;100.00
7966;BME280;4028;43.272;26.932;2023-02-03T03:29:00;99257.72;;;1.90;100.00
7966;BME280;4028;43.272;26.932;2023-02-03T03:31:29;99265.56;;;1.90;100.00
7966;BME280;4028;43.272;26.932;2023-02-03T03:33:55;99267.97;;;1.93;100.00
7966;BME280;4028;43.272;26.932;2023-02-03T03:36:31;99262.50;;;1.97;100.00
7966;BME280;4028;43.272;26.932;2023-02-03T03:44:41;99262.25;;;2.02;100.00
7966;BME280;4028;43.272;26.932;2023-02-03T03:49:34;99266.78;;;1.98;100.00
7966;BME280;4028;43.272;26.932;2023-02-03T03:52:05;99269.41;;;1.98;100.00
7966;BME280;4028;43.272;26.932;2023-02-03T03:54:33;99259.16;;;1.95;100.00
7966;BME280;4028;43.272;26.932;2023-02-03T03:57:10;99254.00;;;1.94;100.00
7966;BME280;4028;43.272;26.932;2023-02-03T03:59:40;99252.06;;;1.97;100.00
7966;BME280;4028;43.272;26.932;2023-02-03T04:02:09;99246.00;;;1.97;100.00
7966;BME280;4028;43.272;26.932;2023-02-03T04:04:37;99248.72;;;1.95;100.00
7966;BME280;4028;43.272;26.932;2023-02-03T04:07:04;99240.03;;;1.95;100.00
7966;BME280;4028;43.272;26.932;2023-02-03T04:09:30;99252.41;;;1.91;100.00
7966;BME280;4028;43.272;26.932;2023-02-03T04:11:55;99259.75;;;1.85;100.00
7966;BME280;4028;43.272;26.932;2023-02-03T04:14:29;99252.56;;;1.88;100.00
7966;BME280;4028;43.272;26.932;2023-02-03T04:16:55;99257.97;;;2.01;100.00
7966;BME280;4028;43.272;26.932;2023-02-03T04:19:21;99270.50;;;1.94;100.00
7966;BME280;4028;43.272;26.932;2023-02-03T04:21:46;99269.34;;;2.00;100.00
7966;BME280;4028;43.272;26.932;2023-02-03T04:24:12;99272.72;;;1.86;100.00
7966;BME280;4028;43.272;26.932;2023-02-03T04:26:38;99270.50;;;1.94;100.00
7966;BME280;4028;43.272;26.932;2023-02-03T04:29:03;99268.81;;;1.93;100.00
7966;BME280;4028;43.272;26.932;2023-02-03T04:31:29;99280.53;;;1.86;100.00
7966;BME280;4028;43.272;26.932;2023-02-03T04:33:54;99285.41;;;1.92;100.00
7966;BME280;4028;43.272;26.932;2023-02-03T04:36:20;99296.53;;;1.96;100.00
7966;BME280;4028;43.272;26.932;2023-02-03T04:38:47;99273.91;;;1.80;100.00
7966;BME280;4028;43.272;26.932;2023-02-03T04:41:13;99304.03;;;1.86;100.00
7966;BME280;4028;43.272;26.932;2023-02-03T04:43:39;99296.94;;;1.88;100.00
7966;BME280;4028;43.272;26.932;2023-02-03T04:46:04;99300.06;;;1.95;100.00
7966;BME280;4028;43.272;26.932;2023-02-03T04:48:29;99295.75;;;1.94;100.00
7966;BME280;4028;43.272;26.932;2023-02-03T04:51:00;99306.97;;;1.96;100.00
7966;BME280;4028;43.272;26.932;2023-02-03T04:53:26;99303.25;;;1.84;100.00
7966;BME280;4028;43.272;26.932;2023-02-03T04:55:52;99309.00;;;1.91;100.00
7966;BME280;4028;43.272;26.932;2023-02-03T04:58:17;99311.06;;;1.84;100.00
7966;BME280;4028;43.272;26.932;2023-02-03T05:00:43;99308.56;;;1.82;100.00
7966;BME280;4028;43.272;26.932;2023-02-03T05:03:08;99311.66;;;1.89;100.00
7966;BME280;4028;43.272;26.932;2023-02-03T05:05:33;99312.44;;;1.75;100.00
7966;BME280;4028;43.272;26.932;2023-02-03T05:07:59;99317.56;;;1.77;100.00
7966;BME280;4028;43.272;26.932;2023-02-03T05:10:24;99314.72;;;1.81;100.00
7966;BME280;4028;43.272;26.932;2023-02-03T05:12:50;99307.28;;;1.74;100.00
7966;BME280;4028;43.272;26.932;2023-02-03T05:15:15;99329.19;;;1.71;100.00
7966;BME280;4028;43.272;26.932;2023-02-03T05:17:41;99318.06;;;1.83;100.00
7966;BME280;4028;43.272;26.932;2023-02-03T05:20:07;99314.03;;;1.94;100.00
7966;BME280;4028;43.272;26.932;2023-02-03T05:22:32;99288.72;;;1.64;100.00
7966;BME280;4028;43.272;26.932;2023-02-03T05:25:00;99334.06;;;1.93;100.00
7966;BME280;4028;43.272;26.932;2023-02-03T05:27:26;99335.31;;;2.02;100.00
7966;BME280;4028;43.272;26.932;2023-02-03T05:29:51;99337.50;;;1.94;100.00
7966;BME280;4028;43.272;26.932;2023-02-03T05:32:17;99340.28;;;2.06;100.00
7966;BME280;4028;43.272;26.932;2023-02-03T05:34:42;99348.13;;;2.06;100.00
7966;BME280;4028;43.272;26.932;2023-02-03T05:37:08;99347.34;;;2.04;100.00
7966;BME280;4028;43.272;26.932;2023-02-03T05:39:33;99356.13;;;2.03;100.00
7966;BME280;4028;43.272;26.932;2023-02-03T05:41:59;99349.91;;;2.06;100.00
7966;BME280;4028;43.272;26.932;2023-02-03T05:44:26;99342.06;;;2.06;100.00
7966;BME280;4028;43.272;26.932;2023-02-03T05:46:54;99347.63;;;2.00;100.00
7966;BME280;4028;43.272;26.932;2023-02-03T05:49:20;99337.25;;;1.98;100.00
7966;BME280;4028;43.272;26.932;2023-02-03T05:51:47;99340.38;;;2.05;100.00
7966;BME280;4028;43.272;26.932;2023-02-03T05:54:13;99341.56;;;2.15;100.00
7966;BME280;4028;43.272;26.932;2023-02-03T05:56:39;99359.31;;;2.08;100.00
7966;BME280;4028;43.272;26.932;2023-02-03T05:59:05;99359.16;;;2.12;100.00
7966;BME280;4028;43.272;26.932;2023-02-03T06:01:31;99353.59;;;2.18;100.00
7966;BME280;4028;43.272;26.932;2023-02-03T06:03:57;99351.72;;;2.20;100.00
7966;BME280;4028;43.272;26.932;2023-02-03T06:06:22;99365.53;;;2.22;100.00
7966;BME280;4028;43.272;26.932;2023-02-03T06:08:48;99352.22;;;2.26;100.00
7966;BME280;4028;43.272;26.932;2023-02-03T06:11:15;99360.91;;;2.27;100.00
7966;BME280;4028;43.272;26.932;2023-02-03T06:13:40;99357.19;;;2.31;100.00
7966;BME280;4028;43.272;26.932;2023-02-03T06:16:06;99366.47;;;2.37;100.00
7966;BME280;4028;43.272;26.932;2023-02-03T06:18:31;99374.19;;;2.38;100.00
7966;BME280;4028;43.272;26.932;2023-02-03T06:20:57;99375.81;;;2.41;100.00
7966;BME280;4028;43.272;26.932;2023-02-03T06:23:22;99370.13;;;2.48;100.00
7966;BME280;4028;43.272;26.932;2023-02-03T06:25:49;99380.00;;;2.43;100.00
7966;BME280;4028;43.272;26.932;2023-02-03T06:28:15;99383.19;;;2.48;100.00
7966;BME280;4028;43.272;26.932;2023-02-03T06:30:41;99379.28;;;2.55;100.00
7966;BME280;4028;43.272;26.932;2023-02-03T06:33:07;99382.94;;;2.53;100.00
7966;BME280;4028;43.272;26.932;2023-02-03T06:35:32;99387.63;;;2.62;100.00
7966;BME280;4028;43.272;26.932;2023-02-03T06:37:58;99395.53;;;2.60;100.00
7966;BME280;4028;43.272;26.932;2023-02-03T06:40:24;99399.91;;;2.46;100.00
7966;BME280;4028;43.272;26.932;2023-02-03T06:42:49;99399.03;;;2.45;100.00
7966;BME280;4028;43.272;26.932;2023-02-03T06:45:16;99410.34;;;2.46;100.00
7966;BME280;4028;43.272;26.932;2023-02-03T06:47:42;99410.94;;;2.51;100.00
7966;BME280;4028;43.272;26.932;2023-02-03T06:50:10;99415.69;;;2.58;100.00
7966;BME280;4028;43.272;26.932;2023-02-03T06:52:35;99407.88;;;2.58;100.00
7966;BME280;4028;43.272;26.932;2023-02-03T06:55:02;99408.44;;;2.64;100.00
7966;BME280;4028;43.272;26.932;2023-02-03T06:57:28;99413.22;;;2.71;100.00
7966;BME280;4028;43.272;26.932;2023-02-03T06:59:53;99385.56;;;2.37;100.00
7966;BME280;4028;43.272;26.932;2023-02-03T07:02:19;99409.28;;;2.64;100.00
7966;BME280;4028;43.272;26.932;2023-02-03T07:04:44;99414.31;;;2.83;100.00
7966;BME280;4028;43.272;26.932;2023-02-03T07:07:11;99406.41;;;2.99;100.00
7966;BME280;4028;43.272;26.932;2023-02-03T07:09:37;99411.84;;;3.10;100.00
7966;BME280;4028;43.272;26.932;2023-02-03T07:12:03;99401.06;;;3.30;100.00
7966;BME280;4028;43.272;26.932;2023-02-03T07:14:29;99422.09;;;3.57;100.00
7966;BME280;4028;43.272;26.932;2023-02-03T07:16:55;99413.28;;;4.01;100.00
7966;BME280;4028;43.272;26.932;2023-02-03T07:19:21;99414.25;;;4.54;100.00
7966;BME280;4028;43.272;26.932;2023-02-03T07:21:47;99420.25;;;4.96;100.00
7966;BME280;4028;43.272;26.932;2023-02-03T07:24:13;99423.38;;;5.28;100.00
7966;BME280;4028;43.272;26.932;2023-02-03T07:26:38;99429.34;;;5.81;100.00
7966;BME280;4028;43.272;26.932;2023-02-03T07:29:04;99425.47;;;5.99;100.00
7966;BME280;4028;43.272;26.932;2023-02-03T07:31:29;99450.47;;;6.42;100.00
7966;BME280;4028;43.272;26.932;2023-02-03T07:33:55;99447.88;;;6.29;100.00
7966;BME280;4028;43.272;26.932;2023-02-03T07:36:20;99449.25;;;6.59;100.00
7966;BME280;4028;43.272;26.932;2023-02-03T07:38:46;99464.56;;;6.77;100.00
7966;BME280;4028;43.272;26.932;2023-02-03T07:41:11;99457.50;;;7.02;100.00
7966;BME280;4028;43.272;26.932;2023-02-03T07:43:37;99465.78;;;7.55;100.00
7966;BME280;4028;43.272;26.932;2023-02-03T07:46:03;99467.25;;;7.70;100.00
7966;BME280;4028;43.272;26.932;2023-02-03T07:48:28;99478.47;;;7.72;100.00
7966;BME280;4028;43.272;26.932;2023-02-03T07:50:54;99459.91;;;7.51;100.00
7966;BME280;4028;43.272;26.932;2023-02-03T07:53:19;99456.72;;;7.93;100.00
7966;BME280;4028;43.272;26.932;2023-02-03T07:55:45;99455.59;;;7.50;100.00
7966;BME280;4028;43.272;26.932;2023-02-03T07:58:10;99451.81;;;6.95;100.00
7966;BME280;4028;43.272;26.932;2023-02-03T08:00:36;99458.22;;;7.04;100.00
7966;BME280;4028;43.272;26.932;2023-02-03T08:03:02;99467.25;;;7.81;100.00
7966;BME280;4028;43.272;26.932;2023-02-03T08:05:28;99477.69;;;8.39;99.53
7966;BME280;4028;43.272;26.932;2023-02-03T08:07:54;99479.72;;;8.47;93.50
7966;BME280;4028;43.272;26.932;2023-02-03T08:10:20;99477.31;;;8.98;85.35
7966;BME280;4028;43.272;26.932;2023-02-03T08:12:46;99471.19;;;8.98;82.93
7966;BME280;4028;43.272;26.932;2023-02-03T08:15:12;99488.31;;;9.35;75.12
7966;BME280;4028;43.272;26.932;2023-02-03T08:17:38;99482.72;;;9.29;75.26
7966;BME280;4028;43.272;26.932;2023-02-03T08:20:08;99487.78;;;9.21;76.34
7966;BME280;4028;43.272;26.932;2023-02-03T08:22:33;99470.84;;;9.86;70.54
7966;BME280;4028;43.272;26.932;2023-02-03T08:24:59;99497.81;;;9.59;67.40
7966;BME280;4028;43.272;26.932;2023-02-03T08:27:24;99495.25;;;7.82;93.99
7966;BME280;4028;43.272;26.932;2023-02-03T08:29:50;99497.88;;;7.60;100.00
7966;BME280;4028;43.272;26.932;2023-02-03T08:32:20;99498.16;;;7.33;100.00
7966;BME280;4028;43.272;26.932;2023-02-03T08:34:47;99501.38;;;7.01;100.00
7966;BME280;4028;43.272;26.932;2023-02-03T08:37:15;99510.19;;;6.53;100.00
7966;BME280;4028;43.272;26.932;2023-02-03T08:39:41;99506.72;;;6.39;100.00
7966;BME280;4028;43.272;26.932;2023-02-03T08:42:07;99517.59;;;6.35;100.00
7966;BME280;4028;43.272;26.932;2023-02-03T08:44:33;99525.88;;;6.29;100.00
7966;BME280;4028;43.272;26.932;2023-02-03T08:47:00;99526.19;;;6.24;100.00
7966;BME280;4028;43.272;26.932;2023-02-03T08:49:27;99536.63;;;6.25;100.00
7966;BME280;4028;43.272;26.932;2023-02-03T08:51:53;99535.84;;;6.49;100.00
7966;BME280;4028;43.272;26.932;2023-02-03T08:54:19;99541.44;;;7.05;100.00
7966;BME280;4028;43.272;26.932;2023-02-03T08:56:45;99534.72;;;7.49;100.00
7966;BME280;4028;43.272;26.932;2023-02-03T08:59:11;99539.53;;;7.66;100.00
7966;BME280;4028;43.272;26.932;2023-02-03T09:01:37;99514.78;;;7.34;100.00
7966;BME280;4028;43.272;26.932;2023-02-03T09:04:05;99532.78;;;7.51;100.00
7966;BME280;4028;43.272;26.932;2023-02-03T09:06:33;99545.31;;;7.82;100.00
7966;BME280;4028;43.272;26.932;2023-02-03T09:08:58;99555.13;;;7.69;100.00
7966;BME280;4028;43.272;26.932;2023-02-03T09:11:24;99546.84;;;7.03;100.00
7966;BME280;4028;43.272;26.932;2023-02-03T09:13:49;99551.09;;;6.44;100.00
7966;BME280;4028;43.272;26.932;2023-02-03T09:16:17;99551.00;;;6.45;100.00
7966;BME280;4028;43.272;26.932;2023-02-03T09:18:43;99555.09;;;6.24;100.00
7966;BME280;4028;43.272;26.932;2023-02-03T09:21:10;99554.28;;;6.23;100.00
7966;BME280;4028;43.272;26.932;2023-02-03T09:23:37;99551.25;;;6.30;100.00
7966;BME280;4028;43.272;26.932;2023-02-03T09:26:04;99538.94;;;6.17;100.00
7966;BME280;4028;43.272;26.932;2023-02-03T09:28:30;99548.63;;;6.30;100.00
7966;BME280;4028;43.272;26.932;2023-02-03T09:31:00;99537.66;;;6.23;100.00
7966;BME280;4028;43.272;26.932;2023-02-03T09:33:26;99538.28;;;6.14;100.00
7966;BME280;4028;43.272;26.932;2023-02-03T09:35:56;99528.09;;;6.22;100.00
7966;BME280;4028;43.272;26.932;2023-02-03T09:38:22;99521.13;;;6.46;100.00
7966;BME280;4028;43.272;26.932;2023-02-03T09:40:52;99529.22;;;6.56;100.00
7966;BME280;4028;43.272;26.932;2023-02-03T09:43:43;99529.84;;;6.84;100.00
7966;BME280;4028;43.272;26.932;2023-02-03T09:46:23;99526.66;;;7.15;100.00
7966;BME280;4028;43.272;26.932;2023-02-03T09:48:53;99522.94;;;7.42;100.00
7966;BME280;4028;43.272;26.932;2023-02-03T09:51:30;99536.25;;;7.51;100.00
7966;BME280;4028;43.272;26.932;2023-02-03T09:54:24;99534.19;;;7.33;100.00
7966;BME280;4028;43.272;26.932;2023-02-03T09:56:46;99526.22;;;6.73;100.00
7966;BME280;4028;43.272;26.932;2023-02-03T09:59:18;99534.47;;;6.56;100.00
7966;BME280;4028;43.272;26.932;2023-02-03T10:04:36;99525.56;;;6.70;100.00
7966;BME280;4028;43.272;26.932;2023-02-03T10:07:14;99523.75;;;6.83;100.00
7966;BME280;4028;43.272;26.932;2023-02-03T10:18:17;99521.31;;;8.54;92.24
7966;BME280;4028;43.272;26.932;2023-02-03T10:20:47;99517.44;;;8.81;90.57
7966;BME280;4028;43.272;26.932;2023-02-03T10:23:35;99521.16;;;8.33;93.72
7966;BME280;4028;43.272;26.932;2023-02-03T10:26:08;99510.16;;;9.05;89.32
7966;BME280;4028;43.272;26.932;2023-02-03T10:28:44;99508.91;;;9.42;74.96
7966;BME280;4028;43.272;26.932;2023-02-03T10:31:26;99509.84;;;9.94;71.56
7966;BME280;4028;43.272;26.932;2023-02-03T10:34:00;99508.34;;;10.01;67.99
7966;BME280;4028;43.272;26.932;2023-02-03T10:42:10;99511.56;;;10.25;67.12
7966;BME280;4028;43.272;26.932;2023-02-03T10:44:57;99504.25;;;11.17;63.33
7966;BME280;4028;43.272;26.932;2023-02-03T10:47:33;99510.81;;;11.52;59.13
7966;BME280;4028;43.272;26.932;2023-02-03T10:50:13;99510.38;;;11.18;59.52
7966;BME280;4028;43.272;26.932;2023-02-03T10:52:40;99512.75;;;11.21;58.60
7966;BME280;4028;43.272;26.932;2023-02-03T10:57:52;99506.50;;;12.08;55.14
7966;BME280;4028;43.272;26.932;2023-02-03T11:00:26;99513.13;;;11.65;55.13
7966;BME280;4028;43.272;26.932;2023-02-03T11:03:06;99502.69;;;11.73;54.64
7966;BME280;4028;43.272;26.932;2023-02-03T11:05:33;99504.66;;;11.03;57.03
7966;BME280;4028;43.272;26.932;2023-02-03T11:07:58;99521.75;;;10.89;58.16
7966;BME280;4028;43.272;26.932;2023-02-03T11:15:36;99514.81;;;9.13;66.38
7966;BME280;4028;43.272;26.932;2023-02-03T11:18:01;99520.25;;;8.46;76.70
7966;BME280;4028;43.272;26.932;2023-02-03T11:20:28;99520.34;;;8.33;85.69
7966;BME280;4028;43.272;26.932;2023-02-03T11:22:54;99519.59;;;7.97;88.70
7966;BME280;4028;43.272;26.932;2023-02-03T11:25:27;99517.06;;;7.73;98.68
7966;BME280;4028;43.272;26.932;2023-02-03T11:28:03;99516.47;;;7.35;100.00
7966;BME280;4028;43.272;26.932;2023-02-03T11:30:29;99513.00;;;7.34;100.00
7966;BME280;4028;43.272;26.932;2023-02-03T11:32:55;99515.19;;;7.51;100.00
7966;BME280;4028;43.272;26.932;2023-02-03T11:35:26;99501.13;;;7.28;100.00
7966;BME280;4028;43.272;26.932;2023-02-03T11:37:55;99502.75;;;7.18;100.00
7966;BME280;4028;43.272;26.932;2023-02-03T11:40:27;99489.81;;;7.15;100.00
7966;BME280;4028;43.272;26.932;2023-02-03T11:45:33;99519.72;;;6.90;100.00
7966;BME280;4028;43.272;26.932;2023-02-03T11:48:02;99519.38;;;6.95;100.00
7966;BME280;4028;43.272;26.932;2023-02-03T11:50:32;99522.53;;;7.00;100.00
7966;BME280;4028;43.272;26.932;2023-02-03T12:01:34;99518.50;;;7.07;100.00
7966;BME280;4028;43.272;26.932;2023-02-03T12:04:28;99506.16;;;6.96;100.00
7966;BME280;4028;43.272;26.932;2023-02-03T12:14:51;99492.88;;;7.68;100.00
7966;BME280;4028;43.272;26.932;2023-02-03T12:17:48;99490.97;;;7.81;100.00
7966;BME280;4028;43.272;26.932;2023-02-03T12:30:31;99481.13;;;7.26;100.00
7966;BME280;4028;43.272;26.932;2023-02-03T12:33:03;99485.38;;;7.51;100.00
7966;BME280;4028;43.272;26.932;2023-02-03T12:35:38;99486.22;;;7.51;100.00
7966;BME280;4028;43.272;26.932;2023-02-03T12:38:24;99484.31;;;7.42;100.00
7966;BME280;4028;43.272;26.932;2023-02-03T12:40:58;99477.81;;;7.35;100.00
7966;BME280;4028;43.272;26.932;2023-02-03T12:46:00;99471.94;;;6.96;100.00
7966;BME280;4028;43.272;26.932;2023-02-03T12:49:14;99473.66;;;7.44;100.00
7966;BME280;4028;43.272;26.932;2023-02-03T12:51:35;99472.38;;;7.72;92.99
7966;BME280;4028;43.272;26.932;2023-02-03T12:54:35;99470.00;;;7.80;86.46
7966;BME280;4028;43.272;26.932;2023-02-03T12:57:36;99441.88;;;7.69;85.55
7966;BME280;4028;43.272;26.932;2023-02-03T13:05:27;99460.09;;;7.84;83.01
7966;BME280;4028;43.272;26.932;2023-02-03T13:08:30;99460.88;;;7.62;85.10
7966;BME280;4028;43.272;26.932;2023-02-03T13:13:36;99465.69;;;7.68;84.79
7966;BME280;4028;43.272;26.932;2023-02-03T13:16:06;99468.19;;;7.58;82.31
7966;BME280;4028;43.272;26.932;2023-02-03T13:18:40;99472.50;;;7.59;81.70
7966;BME280;4028;43.272;26.932;2023-02-03T13:21:10;99473.94;;;7.63;87.50
7966;BME280;4028;43.272;26.932;2023-02-03T13:23:38;99467.22;;;7.59;91.63
7966;BME280;4028;43.272;26.932;2023-02-03T13:34:44;99480.03;;;7.52;100.00
7966;BME280;4028;43.272;26.932;2023-02-03T13:42:38;99472.50;;;7.24;100.00
7966;BME280;4028;43.272;26.932;2023-02-03T13:45:19;99473.69;;;7.20;100.00
7966;BME280;4028;43.272;26.932;2023-02-03T13:47:51;99469.75;;;7.25;100.00
7966;BME280;4028;43.272;26.932;2023-02-03T13:50:27;99466.28;;;7.25;100.00
7966;BME280;4028;43.272;26.932;2023-02-03T13:52:57;99470.09;;;7.21;100.00
7966;BME280;4028;43.272;26.932;2023-02-03T13:55:37;99462.59;;;7.27;100.00
7966;BME280;4028;43.272;26.932;2023-02-03T13:58:05;99465.25;;;7.27;100.00
7966;BME280;4028;43.272;26.932;2023-02-03T14:03:41;99460.56;;;7.31;100.00
7966;BME280;4028;43.272;26.932;2023-02-03T14:09:20;99452.31;;;7.36;100.00
7966;BME280;4028;43.272;26.932;2023-02-03T14:11:49;99443.22;;;7.28;100.00
7966;BME280;4028;43.272;26.932;2023-02-03T14:16:46;99441.44;;;7.29;99.73
7966;BME280;4028;43.272;26.932;2023-02-03T14:24:14;99440.59;;;7.28;94.97
7966;BME280;4028;43.272;26.932;2023-02-03T14:26:43;99443.22;;;7.28;96.23
7966;BME280;4028;43.272;26.932;2023-02-03T14:29:43;99442.94;;;7.20;97.17
7966;BME280;4028;43.272;26.932;2023-02-03T14:32:10;99447.72;;;7.15;98.35
7966;BME280;4028;43.272;26.932;2023-02-03T14:34:42;99455.13;;;7.10;94.03
7966;BME280;4028;43.272;26.932;2023-02-03T14:42:22;99465.00;;;6.71;100.00
7966;BME280;4028;43.272;26.932;2023-02-03T14:45:19;99440.16;;;6.51;100.00
7966;BME280;4028;43.272;26.932;2023-02-03T14:53:29;99438.97;;;6.19;100.00
7966;BME280;4028;43.272;26.932;2023-02-03T14:58:54;99458.00;;;6.22;100.00
7966;BME280;4028;43.272;26.932;2023-02-03T15:01:41;99447.09;;;6.03;100.00
7966;BME280;4028;43.272;26.932;2023-02-03T15:06:44;99443.09;;;6.10;100.00
7966;BME280;4028;43.272;26.932;2023-02-03T15:09:33;99448.69;;;6.06;100.00
7966;BME280;4028;43.272;26.932;2023-02-03T15:12:15;99436.06;;;5.98;100.00
7966;BME280;4028;43.272;26.932;2023-02-03T15:14:41;99445.03;;;5.95;100.00
7966;BME280;4028;43.272;26.932;2023-02-03T15:17:17;99436.91;;;5.86;100.00
7966;BME280;4028;43.272;26.932;2023-02-03T15:19:46;99449.63;;;5.79;100.00
7966;BME280;4028;43.272;26.932;2023-02-03T15:22:36;99449.94;;;5.74;100.00
7966;BME280;4028;43.272;26.932;2023-02-03T15:25:14;99450.47;;;5.80;100.00
7966;BME280;4028;43.272;26.932;2023-02-03T15:27:41;99447.22;;;5.63;100.00
7966;BME280;4028;43.272;26.932;2023-02-03T15:30:27;99444.59;;;5.63;100.00
7966;BME280;4028;43.272;26.932;2023-02-03T15:33:06;99441.09;;;5.63;100.00
7966;BME280;4028;43.272;26.932;2023-02-03T15:35:33;99432.81;;;5.56;100.00
7966;BME280;4028;43.272;26.932;2023-02-03T15:38:11;99457.72;;;5.76;100.00
7966;BME280;4028;43.272;26.932;2023-02-03T15:40:48;99457.59;;;5.78;100.00
7966;BME280;4028;43.272;26.932;2023-02-03T15:43:24;99457.91;;;5.73;100.00